sensor_id;sensor_type;location;lat;lon;timestamp;pressure;altitude;pressure_sealevel;temperature;humidity
15260;BME280;34462;51.368;12.364;2022-08-11T00:01:24;21234.72;;;-141.84;44.04
15260;BME280;34462;51.368;12.364;2022-08-11T00:03:55;21218.44;;;-141.84;44.22
15260;BME280;34462;51.368;12.364;2022-08-11T00:06:28;21263.19;;;-141.84;43.59
15260;BME280;34462;51.368;12.364;2022-08-11T00:08:58;21250.97;;;-141.84;43.63
15260;BME280;34462;51.368;12.364;2022-08-11T00:11:38;21222.53;;;-141.84;43.78
15260;BME280;34462;51.368;12.364;2022-08-11T00:14:15;21240.81;;;-141.84;43.80
15260;BME280;34462;51.368;12.364;2022-08-11T00:16:55;21218.44;;;-141.84;44.16
15260;BME280;34462;51.368;12.364;2022-08-11T00:19:27;21218.44;;;-141.84;44.15
15260;BME280;34462;51.368;12.364;2022-08-11T00:22:20;21234.72;;;-141.84;44.16
15260;BME280;34462;51.368;12.364;2022-08-11T00:24:49;21198.13;;;-141.84;44.07
15260;BME280;34462;51.368;12.364;2022-08-11T00:27:33;21216.41;;;-141.84;44.27
15260;BME280;34462;51.368;12.364;2022-08-11T00:30:03;21212.34;;;-141.84;44.07
15260;BME280;34462;51.368;12.364;2022-08-11T00:32:33;21236.75;;;-141.84;44.30
15260;BME280;34462;51.368;12.364;2022-08-11T00:35:05;21194.06;;;-141.84;44.50
15260;BME280;34462;51.368;12.364;2022-08-11T00:37:55;21179.81;;;-141.84;44.65
15260;BME280;34462;51.368;12.364;2022-08-11T00:40:35;21200.16;;;-141.84;44.64
15260;BME280;34462;51.368;12.364;2022-08-11T00:43:21;21190.00;;;-141.84;44.87
15260;BME280;34462;51.368;12.364;2022-08-11T00:46:16;21183.88;;;-141.84;44.81
15260;BME280;34462;51.368;12.364;2022-08-11T00:49:04;21173.72;;;-141.84;44.93
15260;BME280;34462;51.368;12.364;2022-08-11T00:51:57;21155.44;;;-141.84;45.05
15260;BME280;34462;51.368;12.364;2022-08-11T00:55:04;21141.19;;;-141.84;45.55
15260;BME280;34462;51.368;12.364;2022-08-11T00:58:21;21137.13;;;-141.84;45.45
15260;BME280;34462;51.368;12.364;2022-08-11T01:01:08;21137.13;;;-141.84;45.35
15260;BME280;34462;51.368;12.364;2022-08-11T01:04:19;21155.44;;;-141.84;45.57
15260;BME280;34462;51.368;12.364;2022-08-11T01:14:25;21106.63;;;-141.84;46.12
15260;BME280;34462;51.368;12.364;2022-08-11T01:28:21;21092.41;;;-141.84;46.50
15260;BME280;34462;51.368;12.364;2022-08-11T01:31:49;21057.84;;;-141.84;46.81
15260;BME280;34462;51.368;12.364;2022-08-11T01:38:46;21049.72;;;-141.84;46.65
15260;BME280;34462;51.368;12.364;2022-08-11T01:41:41;21082.25;;;-141.84;46.94
15260;BME280;34462;51.368;12.364;2022-08-11T01:45:06;21065.97;;;-141.84;47.23
15260;BME280;34462;51.368;12.364;2022-08-11T01:47:45;21027.34;;;-141.84;47.44
15260;BME280;34462;51.368;12.364;2022-08-11T01:50:44;21007.00;;;-141.84;47.81
15260;BME280;34462;51.368;12.364;2022-08-11T01:53:28;21037.50;;;-141.84;47.59
15260;BME280;34462;51.368;12.364;2022-08-11T01:56:17;21027.34;;;-141.84;47.71
15260;BME280;34462;51.368;12.364;2022-08-11T01:59:01;21057.84;;;-141.84;47.77
15260;BME280;34462;51.368;12.364;2022-08-11T02:01:45;21015.16;;;-141.84;47.62
15260;BME280;34462;51.368;12.364;2022-08-11T02:04:31;21009.03;;;-141.84;47.59
15260;BME280;34462;51.368;12.364;2022-08-11T02:07:12;21031.41;;;-141.84;47.86
15260;BME280;34462;51.368;12.364;2022-08-11T02:10:08;21009.03;;;-141.84;48.14
15260;BME280;34462;51.368;12.364;2022-08-11T02:13:14;20933.81;;;-141.84;48.53
15260;BME280;34462;51.368;12.364;2022-08-11T02:16:15;20974.50;;;-141.84;48.50
15260;BME280;34462;51.368;12.364;2022-08-11T02:18:52;20984.66;;;-141.84;48.47
15260;BME280;34462;51.368;12.364;2022-08-11T02:21:48;20960.25;;;-141.84;49.03
15260;BME280;34462;51.368;12.364;2022-08-11T02:24:46;20966.34;;;-141.84;48.96
15260;BME280;34462;51.368;12.364;2022-08-11T02:27:24;20923.66;;;-141.84;49.37
15260;BME280;34462;51.368;12.364;2022-08-11T02:30:00;20964.31;;;-141.84;49.48
15260;BME280;34462;51.368;12.364;2022-08-11T02:32:49;20946.03;;;-141.84;49.52
15260;BME280;34462;51.368;12.364;2022-08-11T02:36:05;20937.91;;;-141.84;49.27
15260;BME280;34462;51.368;12.364;2022-08-11T02:38:50;20941.97;;;-141.84;49.83
15260;BME280;34462;51.368;12.364;2022-08-11T02:41:32;20939.94;;;-141.84;49.82
15260;BME280;34462;51.368;12.364;2022-08-11T02:44:39;20946.03;;;-141.84;49.98
15260;BME280;34462;51.368;12.364;2022-08-11T02:47:35;20915.53;;;-141.84;50.28
15260;BME280;34462;51.368;12.364;2022-08-11T02:50:19;20913.50;;;-141.84;50.11
15260;BME280;34462;51.368;12.364;2022-08-11T02:52:56;20880.97;;;-141.84;50.19
15260;BME280;34462;51.368;12.364;2022-08-11T02:55:36;20919.59;;;-141.84;50.52
15260;BME280;34462;51.368;12.364;2022-08-11T02:58:35;20901.31;;;-141.84;50.82
15260;BME280;34462;51.368;12.364;2022-08-11T03:01:18;20927.72;;;-141.84;50.54
15260;BME280;34462;51.368;12.364;2022-08-11T03:03:59;20919.59;;;-141.84;50.52
15260;BME280;34462;51.368;12.364;2022-08-11T03:06:39;20913.50;;;-141.84;51.02
15260;BME280;34462;51.368;12.364;2022-08-11T03:09:23;20868.78;;;-141.84;51.60
15260;BME280;34462;51.368;12.364;2022-08-11T03:12:01;20856.56;;;-141.84;51.52
15260;BME280;34462;51.368;12.364;2022-08-11T03:14:57;20874.88;;;-141.84;51.50
15260;BME280;34462;51.368;12.364;2022-08-11T03:18:03;20854.53;;;-141.84;51.99
15260;BME280;34462;51.368;12.364;2022-08-11T03:20:44;20848.44;;;-141.84;52.02
15260;BME280;34462;51.368;12.364;2022-08-11T03:23:24;20842.34;;;-141.84;52.09
15260;BME280;34462;51.368;12.364;2022-08-11T03:26:02;20874.88;;;-141.84;52.09
15260;BME280;34462;51.368;12.364;2022-08-11T03:28:40;20852.50;;;-141.84;51.80
15260;BME280;34462;51.368;12.364;2022-08-11T03:31:23;20860.66;;;-141.84;52.32
15260;BME280;34462;51.368;12.364;2022-08-11T03:34:00;20815.91;;;-141.84;52.66
15260;BME280;34462;51.368;12.364;2022-08-11T03:37:10;20862.69;;;-141.84;52.42
15260;BME280;34462;51.368;12.364;2022-08-11T03:40:15;20815.91;;;-141.84;52.92
15260;BME280;34462;51.368;12.364;2022-08-11T03:43:31;20828.13;;;-141.84;53.27
15260;BME280;34462;51.368;12.364;2022-08-11T03:46:11;20811.84;;;-141.84;53.37
15260;BME280;34462;51.368;12.364;2022-08-11T03:48:55;20840.31;;;-141.84;53.25
15260;BME280;34462;51.368;12.364;2022-08-11T03:51:37;20801.69;;;-141.84;53.46
15260;BME280;34462;51.368;12.364;2022-08-11T03:54:30;20785.44;;;-141.84;53.66
15260;BME280;34462;51.368;12.364;2022-08-11T03:57:48;20838.28;;;-141.84;52.89
15260;BME280;34462;51.368;12.364;2022-08-11T04:00:49;20838.28;;;-141.84;53.22
15260;BME280;34462;51.368;12.364;2022-08-11T04:04:11;20862.69;;;-141.84;52.98
15260;BME280;34462;51.368;12.364;2022-08-11T04:07:34;20897.25;;;-141.84;52.56
15260;BME280;34462;51.368;12.364;2022-08-11T04:10:50;20872.84;;;-141.84;52.50
15260;BME280;34462;51.368;12.364;2022-08-11T04:20:50;20840.31;;;-141.84;52.89
15260;BME280;34462;51.368;12.364;2022-08-11T04:23:54;20864.72;;;-141.84;52.35
15260;BME280;34462;51.368;12.364;2022-08-11T04:27:34;20860.66;;;-141.84;52.63
15260;BME280;34462;51.368;12.364;2022-08-11T04:30:14;20844.38;;;-141.84;52.77
15260;BME280;34462;51.368;12.364;2022-08-11T04:33:18;20854.53;;;-141.84;52.61
15260;BME280;34462;51.368;12.364;2022-08-11T04:36:34;20883.00;;;-141.84;52.77
15260;BME280;34462;51.368;12.364;2022-08-11T04:39:46;20846.41;;;-141.84;52.82
15260;BME280;34462;51.368;12.364;2022-08-11T04:43:10;20895.19;;;-141.84;52.47
15260;BME280;34462;51.368;12.364;2022-08-11T04:46:14;20832.19;;;-141.84;52.58
15260;BME280;34462;51.368;12.364;2022-08-11T04:49:24;20925.69;;;-141.84;52.55
15260;BME280;34462;51.368;12.364;2022-08-11T04:52:36;20909.44;;;-141.84;52.32
15260;BME280;34462;51.368;12.364;2022-08-11T04:55:50;20941.97;;;-141.84;51.95
15260;BME280;34462;51.368;12.364;2022-08-11T04:59:07;20956.19;;;-141.84;51.71
15260;BME280;34462;51.368;12.364;2022-08-11T05:05:30;21029.38;;;-141.84;51.00
15260;BME280;34462;51.368;12.364;2022-08-11T05:08:49;21161.53;;;-141.84;48.91
15260;BME280;34462;51.368;12.364;2022-08-11T05:12:11;21350.59;;;-141.84;47.16
15260;BME280;34462;51.368;12.364;2022-08-11T05:14:49;21551.91;;;-141.84;44.66
15260;BME280;34462;51.368;12.364;2022-08-11T05:17:41;21690.16;;;-141.84;42.77
15260;BME280;34462;51.368;12.364;2022-08-11T05:20:48;21659.66;;;-141.84;42.96
15260;BME280;34462;51.368;12.364;2022-08-11T05:23:42;21602.72;;;-141.84;43.47
15260;BME280;34462;51.368;12.364;2022-08-11T05:26:45;21566.13;;;-141.84;43.97
15260;BME280;34462;51.368;12.364;2022-08-11T05:29:42;21523.44;;;-141.84;44.69
15260;BME280;34462;51.368;12.364;2022-08-11T05:32:35;21519.34;;;-141.84;44.27
15260;BME280;34462;51.368;12.364;2022-08-11T05:35:41;21533.59;;;-141.84;44.76
15260;BME280;34462;51.368;12.364;2022-08-11T05:38:32;21513.25;;;-141.84;44.59
15260;BME280;34462;51.368;12.364;2022-08-11T05:41:21;21578.31;;;-141.84;43.92
15260;BME280;34462;51.368;12.364;2022-08-11T05:44:17;21600.69;;;-141.84;43.68
15260;BME280;34462;51.368;12.364;2022-08-11T05:47:04;21551.91;;;-141.84;43.72
15260;BME280;34462;51.368;12.364;2022-08-11T05:49:51;21553.94;;;-141.84;43.68
15260;BME280;34462;51.368;12.364;2022-08-11T05:52:45;21633.22;;;-141.84;43.71
15260;BME280;34462;51.368;12.364;2022-08-11T05:55:40;21677.97;;;-141.84;43.29
15260;BME280;34462;51.368;12.364;2022-08-11T05:58:34;21669.81;;;-141.84;42.94
15260;BME280;34462;51.368;12.364;2022-08-11T06:01:11;21724.72;;;-141.84;42.74
15260;BME280;34462;51.368;12.364;2022-08-11T06:03:44;21712.53;;;-141.84;42.45
15260;BME280;34462;51.368;12.364;2022-08-11T06:06:57;21749.13;;;-141.84;42.49
15260;BME280;34462;51.368;12.364;2022-08-11T06:09:30;21765.38;;;-141.84;42.24
15260;BME280;34462;51.368;12.364;2022-08-11T06:12:04;21749.13;;;-141.84;42.54
15260;BME280;34462;51.368;12.364;2022-08-11T06:14:41;21775.56;;;-141.84;42.39
15260;BME280;34462;51.368;12.364;2022-08-11T06:17:12;21789.78;;;-141.84;41.84
15260;BME280;34462;51.368;12.364;2022-08-11T06:19:46;21806.06;;;-141.84;42.12
15260;BME280;34462;51.368;12.364;2022-08-11T06:22:20;21814.19;;;-141.84;42.33
15260;BME280;34462;51.368;12.364;2022-08-11T06:24:56;21789.78;;;-141.84;42.31
15260;BME280;34462;51.368;12.364;2022-08-11T06:27:29;21863.00;;;-141.84;42.48
15260;BME280;34462;51.368;12.364;2022-08-11T06:29:59;21891.47;;;-141.84;41.89
15260;BME280;34462;51.368;12.364;2022-08-11T06:32:33;21863.00;;;-141.84;41.77
15260;BME280;34462;51.368;12.364;2022-08-11T06:35:12;21875.19;;;-141.84;41.46
15260;BME280;34462;51.368;12.364;2022-08-11T06:38:05;21911.78;;;-141.84;41.79
15260;BME280;34462;51.368;12.364;2022-08-11T06:40:45;21891.47;;;-141.84;41.60
15260;BME280;34462;51.368;12.364;2022-08-11T06:43:48;21917.91;;;-141.84;41.51
15260;BME280;34462;51.368;12.364;2022-08-11T06:46:28;21911.78;;;-141.84;41.63
15260;BME280;34462;51.368;12.364;2022-08-11T06:49:01;21956.53;;;-141.84;41.31
15260;BME280;34462;51.368;12.364;2022-08-11T06:51:30;21936.19;;;-141.84;41.20
15260;BME280;34462;51.368;12.364;2022-08-11T06:54:01;21938.22;;;-141.84;41.05
15260;BME280;34462;51.368;12.364;2022-08-11T06:56:35;21964.66;;;-141.84;41.33
15260;BME280;34462;51.368;12.364;2022-08-11T06:59:44;21976.88;;;-141.84;41.14
15260;BME280;34462;51.368;12.364;2022-08-11T07:02:35;21972.81;;;-141.84;40.84
15260;BME280;34462;51.368;12.364;2022-08-11T07:05:12;21997.19;;;-141.84;40.77
15260;BME280;34462;51.368;12.364;2022-08-11T07:08:29;21980.94;;;-141.84;40.87
15260;BME280;34462;51.368;12.364;2022-08-11T07:11:54;21974.84;;;-141.84;40.91
15260;BME280;34462;51.368;12.364;2022-08-11T07:14:50;21993.13;;;-141.84;40.96
15260;BME280;34462;51.368;12.364;2022-08-11T07:17:43;21974.84;;;-141.84;41.25
15260;BME280;34462;51.368;12.364;2022-08-11T07:20:17;21958.56;;;-141.84;41.05
15260;BME280;34462;51.368;12.364;2022-08-11T07:23:07;21976.88;;;-141.84;40.37
15260;BME280;34462;51.368;12.364;2022-08-11T07:25:58;22009.41;;;-141.84;40.60
15260;BME280;34462;51.368;12.364;2022-08-11T07:28:48;22001.28;;;-141.84;40.68
15260;BME280;34462;51.368;12.364;2022-08-11T07:31:32;22017.53;;;-141.84;40.64
15260;BME280;34462;51.368;12.364;2022-08-11T07:34:16;22029.75;;;-141.84;40.31
15260;BME280;34462;51.368;12.364;2022-08-11T07:36:51;22048.03;;;-141.84;40.00
15260;BME280;34462;51.368;12.364;2022-08-11T07:39:23;22111.09;;;-141.84;39.94
15260;BME280;34462;51.368;12.364;2022-08-11T07:41:55;22090.75;;;-141.84;39.49
15260;BME280;34462;51.368;12.364;2022-08-11T07:44:27;22068.38;;;-141.84;39.33
15260;BME280;34462;51.368;12.364;2022-08-11T07:47:01;22076.50;;;-141.84;39.04
15260;BME280;34462;51.368;12.364;2022-08-11T07:49:49;22088.72;;;-141.84;39.49
15260;BME280;34462;51.368;12.364;2022-08-11T07:52:39;22131.41;;;-141.84;39.77
15260;BME280;34462;51.368;12.364;2022-08-11T07:55:13;22145.66;;;-141.84;39.18
15260;BME280;34462;51.368;12.364;2022-08-11T07:57:45;22127.34;;;-141.84;39.23
15260;BME280;34462;51.368;12.364;2022-08-11T08:00:50;22159.88;;;-141.84;38.56
15260;BME280;34462;51.368;12.364;2022-08-11T08:03:49;22161.91;;;-141.84;38.93
15260;BME280;34462;51.368;12.364;2022-08-11T08:06:37;22168.03;;;-141.84;39.23
15260;BME280;34462;51.368;12.364;2022-08-11T08:09:25;22196.50;;;-141.84;37.82
15260;BME280;34462;51.368;12.364;2022-08-11T08:12:15;22255.47;;;-141.84;37.77
15260;BME280;34462;51.368;12.364;2022-08-11T08:15:06;22263.59;;;-141.84;37.88
15260;BME280;34462;51.368;12.364;2022-08-11T08:17:56;22273.78;;;-141.84;37.61
15260;BME280;34462;51.368;12.364;2022-08-11T08:20:48;22257.50;;;-141.84;37.62
15260;BME280;34462;51.368;12.364;2022-08-11T08:23:17;22328.69;;;-141.84;37.65
15260;BME280;34462;51.368;12.364;2022-08-11T08:26:04;22351.03;;;-141.84;37.27
15260;BME280;34462;51.368;12.364;2022-08-11T08:28:56;22361.22;;;-141.84;37.43
15260;BME280;34462;51.368;12.364;2022-08-11T08:31:46;22369.34;;;-141.84;37.46
15260;BME280;34462;51.368;12.364;2022-08-11T08:34:15;22369.34;;;-141.84;36.59
15260;BME280;34462;51.368;12.364;2022-08-11T08:36:46;22420.19;;;-141.84;36.58
15260;BME280;34462;51.368;12.364;2022-08-11T08:39:18;22410.03;;;-141.84;36.46
15260;BME280;34462;51.368;12.364;2022-08-11T08:41:53;22416.13;;;-141.84;36.01
15260;BME280;34462;51.368;12.364;2022-08-11T08:44:23;22483.25;;;-141.84;35.77
15260;BME280;34462;51.368;12.364;2022-08-11T08:47:14;22499.50;;;-141.84;35.56
15260;BME280;34462;51.368;12.364;2022-08-11T08:50:11;22519.84;;;-141.84;35.27
15260;BME280;34462;51.368;12.364;2022-08-11T08:52:51;22505.59;;;-141.84;35.25
15260;BME280;34462;51.368;12.364;2022-08-11T08:55:21;22509.69;;;-141.84;35.24
15260;BME280;34462;51.368;12.364;2022-08-11T08:57:53;22550.34;;;-141.84;35.03
15260;BME280;34462;51.368;12.364;2022-08-11T09:00:38;22599.16;;;-141.84;35.02
15260;BME280;34462;51.368;12.364;2022-08-11T09:03:08;22570.69;;;-141.84;34.93
15260;BME280;34462;51.368;12.364;2022-08-11T09:05:57;22603.22;;;-141.84;34.10
15260;BME280;34462;51.368;12.364;2022-08-11T09:08:25;22676.44;;;-141.84;33.32
15260;BME280;34462;51.368;12.364;2022-08-11T09:10:56;22672.38;;;-141.84;33.69
15260;BME280;34462;51.368;12.364;2022-08-11T09:13:45;22696.78;;;-141.84;33.38
15260;BME280;34462;51.368;12.364;2022-08-11T09:16:33;22696.78;;;-141.84;33.13
15260;BME280;34462;51.368;12.364;2022-08-11T09:19:02;22713.06;;;-141.84;33.14
15260;BME280;34462;51.368;12.364;2022-08-11T09:21:31;22696.78;;;-141.84;33.59
15260;BME280;34462;51.368;12.364;2022-08-11T09:24:16;22702.88;;;-141.84;33.86
15260;BME280;34462;51.368;12.364;2022-08-11T09:27:05;22749.66;;;-141.84;33.57
15260;BME280;34462;51.368;12.364;2022-08-11T09:29:37;22772.03;;;-141.84;33.54
15260;BME280;34462;51.368;12.364;2022-08-11T09:32:06;22839.16;;;-141.84;32.85
15260;BME280;34462;51.368;12.364;2022-08-11T09:34:36;22835.09;;;-141.84;32.39
15260;BME280;34462;51.368;12.364;2022-08-11T09:37:07;22881.88;;;-141.84;32.28
15260;BME280;34462;51.368;12.364;2022-08-11T09:40:14;22845.25;;;-141.84;32.52
15260;BME280;34462;51.368;12.364;2022-08-11T09:43:05;22810.69;;;-141.84;32.14
15260;BME280;34462;51.368;12.364;2022-08-11T09:45:54;22831.03;;;-141.84;32.20
15260;BME280;34462;51.368;12.364;2022-08-11T09:48:26;22879.84;;;-141.84;31.83
15260;BME280;34462;51.368;12.364;2022-08-11T09:50:58;22826.97;;;-141.84;31.88
15260;BME280;34462;51.368;12.364;2022-08-11T09:53:34;22847.28;;;-141.84;32.01
15260;BME280;34462;51.368;12.364;2022-08-11T09:56:12;22885.94;;;-141.84;31.76
15260;BME280;34462;51.368;12.364;2022-08-11T09:59:01;22928.66;;;-141.84;31.76
15260;BME280;34462;51.368;12.364;2022-08-11T10:01:38;22985.59;;;-141.84;31.78
15260;BME280;34462;51.368;12.364;2022-08-11T10:04:12;23016.13;;;-141.84;31.57
15260;BME280;34462;51.368;12.364;2022-08-11T10:06:49;23079.19;;;-141.84;31.61
15260;BME280;34462;51.368;12.364;2022-08-11T10:09:41;23162.56;;;-141.84;31.55
15260;BME280;34462;51.368;12.364;2022-08-11T10:12:16;23184.94;;;-141.84;31.17
15260;BME280;34462;51.368;12.364;2022-08-11T10:14:52;23203.25;;;-141.84;31.28
15260;BME280;34462;51.368;12.364;2022-08-11T10:17:47;23274.44;;;-141.84;30.84
15260;BME280;34462;51.368;12.364;2022-08-11T10:20:34;23217.50;;;-141.84;30.89
15260;BME280;34462;51.368;12.364;2022-08-11T10:23:04;23223.59;;;-141.84;30.79
15260;BME280;34462;51.368;12.364;2022-08-11T10:25:55;23211.38;;;-141.84;30.41
15260;BME280;34462;51.368;12.364;2022-08-11T10:28:42;23152.41;;;-141.84;30.65
15260;BME280;34462;51.368;12.364;2022-08-11T10:31:31;23184.94;;;-141.84;30.67
15260;BME280;34462;51.368;12.364;2022-08-11T10:34:50;23087.31;;;-141.84;30.86
15260;BME280;34462;51.368;12.364;2022-08-11T10:37:24;23071.03;;;-141.84;31.05
15260;BME280;34462;51.368;12.364;2022-08-11T10:40:15;23099.50;;;-141.84;31.22
15260;BME280;34462;51.368;12.364;2022-08-11T10:42:44;23071.03;;;-141.84;31.23
15260;BME280;34462;51.368;12.364;2022-08-11T10:45:35;23107.66;;;-141.84;31.40
15260;BME280;34462;51.368;12.364;2022-08-11T10:48:23;23066.97;;;-141.84;31.49
15260;BME280;34462;51.368;12.364;2022-08-11T10:50:54;23095.44;;;-141.84;31.13
15260;BME280;34462;51.368;12.364;2022-08-11T10:54:04;23136.13;;;-141.84;31.31
15260;BME280;34462;51.368;12.364;2022-08-11T10:56:51;23136.13;;;-141.84;31.32
15260;BME280;34462;51.368;12.364;2022-08-11T10:59:40;23107.66;;;-141.84;31.18
15260;BME280;34462;51.368;12.364;2022-08-11T11:02:13;23099.50;;;-141.84;31.16
15260;BME280;34462;51.368;12.364;2022-08-11T11:04:58;23119.84;;;-141.84;31.31
15260;BME280;34462;51.368;12.364;2022-08-11T11:07:44;23174.78;;;-141.84;31.18
15260;BME280;34462;51.368;12.364;2022-08-11T11:10:15;23248.00;;;-141.84;31.13
15260;BME280;34462;51.368;12.364;2022-08-11T11:12:46;23221.56;;;-141.84;30.67
15260;BME280;34462;51.368;12.364;2022-08-11T11:15:46;23217.50;;;-141.84;29.98
15260;BME280;34462;51.368;12.364;2022-08-11T11:18:35;23264.28;;;-141.84;29.41
15260;BME280;34462;51.368;12.364;2022-08-11T11:21:06;23278.50;;;-141.84;29.43
15260;BME280;34462;51.368;12.364;2022-08-11T11:23:47;23335.47;;;-141.84;29.29
15260;BME280;34462;51.368;12.364;2022-08-11T11:26:34;23270.38;;;-141.84;29.74
15260;BME280;34462;51.368;12.364;2022-08-11T11:29:33;23290.72;;;-141.84;29.94
15260;BME280;34462;51.368;12.364;2022-08-11T11:32:23;23274.44;;;-141.84;29.84
15260;BME280;34462;51.368;12.364;2022-08-11T11:35:12;23264.28;;;-141.84;29.97
15260;BME280;34462;51.368;12.364;2022-08-11T11:37:48;23211.38;;;-141.84;29.75
15260;BME280;34462;51.368;12.364;2022-08-11T11:40:32;23282.59;;;-141.84;29.64
15260;BME280;34462;51.368;12.364;2022-08-11T11:43:01;23292.75;;;-141.84;29.15
15260;BME280;34462;51.368;12.364;2022-08-11T11:45:31;23215.47;;;-141.84;29.36
15260;BME280;34462;51.368;12.364;2022-08-11T11:48:01;23258.19;;;-141.84;29.33
15260;BME280;34462;51.368;12.364;2022-08-11T11:50:31;23274.44;;;-141.84;28.58
15260;BME280;34462;51.368;12.364;2022-08-11T11:53:06;23307.00;;;-141.84;28.55
15260;BME280;34462;51.368;12.364;2022-08-11T11:55:36;23302.94;;;-141.84;28.53
15260;BME280;34462;51.368;12.364;2022-08-11T11:58:05;23323.28;;;-141.84;28.67
15260;BME280;34462;51.368;12.364;2022-08-11T12:00:55;23286.66;;;-141.84;29.21
15260;BME280;34462;51.368;12.364;2022-08-11T12:03:45;23335.47;;;-141.84;29.30
15260;BME280;34462;51.368;12.364;2022-08-11T12:06:14;23329.38;;;-141.84;28.90
15260;BME280;34462;51.368;12.364;2022-08-11T12:08:47;23286.66;;;-141.84;29.11
15260;BME280;34462;51.368;12.364;2022-08-11T12:11:19;23276.47;;;-141.84;29.02
15260;BME280;34462;51.368;12.364;2022-08-11T12:14:10;23321.22;;;-141.84;28.88
15260;BME280;34462;51.368;12.364;2022-08-11T12:16:42;23264.28;;;-141.84;28.80
15260;BME280;34462;51.368;12.364;2022-08-11T12:19:12;23302.94;;;-141.84;28.97
15260;BME280;34462;51.368;12.364;2022-08-11T12:21:42;23321.22;;;-141.84;28.83
15260;BME280;34462;51.368;12.364;2022-08-11T12:24:28;23359.88;;;-141.84;28.85
15260;BME280;34462;51.368;12.364;2022-08-11T12:27:16;23363.94;;;-141.84;28.95
15260;BME280;34462;51.368;12.364;2022-08-11T12:29:55;23343.63;;;-141.84;28.74
15260;BME280;34462;51.368;12.364;2022-08-11T12:32:27;23368.03;;;-141.84;29.03
15260;BME280;34462;51.368;12.364;2022-08-11T12:34:57;23351.75;;;-141.84;29.13
15260;BME280;34462;51.368;12.364;2022-08-11T12:37:30;23384.28;;;-141.84;29.07
15260;BME280;34462;51.368;12.364;2022-08-11T12:40:04;23388.38;;;-141.84;29.17
15260;BME280;34462;51.368;12.364;2022-08-11T12:43:17;23388.38;;;-141.84;28.91
15260;BME280;34462;51.368;12.364;2022-08-11T12:46:13;23363.94;;;-141.84;29.28
15260;BME280;34462;51.368;12.364;2022-08-11T12:48:47;23351.75;;;-141.84;29.05
15260;BME280;34462;51.368;12.364;2022-08-11T12:51:36;23378.19;;;-141.84;28.88
15260;BME280;34462;51.368;12.364;2022-08-11T12:54:49;23382.25;;;-141.84;28.94
15260;BME280;34462;51.368;12.364;2022-08-11T12:57:26;23372.09;;;-141.84;28.49
15260;BME280;34462;51.368;12.364;2022-08-11T13:00:16;23363.94;;;-141.84;28.65
15260;BME280;34462;51.368;12.364;2022-08-11T13:03:06;23370.06;;;-141.84;28.97
15260;BME280;34462;51.368;12.364;2022-08-11T13:05:56;23396.50;;;-141.84;28.76
15260;BME280;34462;51.368;12.364;2022-08-11T13:08:27;23410.75;;;-141.84;28.73
15260;BME280;34462;51.368;12.364;2022-08-11T13:10:59;23412.78;;;-141.84;28.78
15260;BME280;34462;51.368;12.364;2022-08-11T13:13:47;23445.31;;;-141.84;28.99
15260;BME280;34462;51.368;12.364;2022-08-11T13:16:27;23457.53;;;-141.84;28.75
15260;BME280;34462;51.368;12.364;2022-08-11T13:18:57;23461.59;;;-141.84;28.46
15260;BME280;34462;51.368;12.364;2022-08-11T13:21:27;23471.78;;;-141.84;28.80
15260;BME280;34462;51.368;12.364;2022-08-11T13:23:57;23510.41;;;-141.84;28.46
15260;BME280;34462;51.368;12.364;2022-08-11T13:26:36;23483.97;;;-141.84;28.62
15260;BME280;34462;51.368;12.364;2022-08-11T13:29:18;23534.84;;;-141.84;28.61
15260;BME280;34462;51.368;12.364;2022-08-11T13:31:49;23424.97;;;-141.84;28.70
15260;BME280;34462;51.368;12.364;2022-08-11T13:34:19;23449.38;;;-141.84;28.35
15260;BME280;34462;51.368;12.364;2022-08-11T13:36:50;23469.72;;;-141.84;28.83
15260;BME280;34462;51.368;12.364;2022-08-11T13:39:21;23431.09;;;-141.84;28.88
15260;BME280;34462;51.368;12.364;2022-08-11T13:41:54;23445.31;;;-141.84;29.03
15260;BME280;34462;51.368;12.364;2022-08-11T13:44:26;23429.03;;;-141.84;29.04
15260;BME280;34462;51.368;12.364;2022-08-11T13:47:00;23471.78;;;-141.84;28.42
15260;BME280;34462;51.368;12.364;2022-08-11T13:49:31;23441.25;;;-141.84;28.38
15260;BME280;34462;51.368;12.364;2022-08-11T13:52:02;23508.38;;;-141.84;28.37
15260;BME280;34462;51.368;12.364;2022-08-11T13:54:34;23498.22;;;-141.84;28.42
15260;BME280;34462;51.368;12.364;2022-08-11T13:57:07;23481.94;;;-141.84;28.51
15260;BME280;34462;51.368;12.364;2022-08-11T13:59:57;23402.59;;;-141.84;28.73
15260;BME280;34462;51.368;12.364;2022-08-11T14:02:56;23473.81;;;-141.84;28.68
15260;BME280;34462;51.368;12.364;2022-08-11T14:05:27;23522.63;;;-141.84;28.42
15260;BME280;34462;51.368;12.364;2022-08-11T14:08:01;23516.53;;;-141.84;28.57
15260;BME280;34462;51.368;12.364;2022-08-11T14:10:31;23534.84;;;-141.84;28.88
15260;BME280;34462;51.368;12.364;2022-08-11T14:13:06;23483.97;;;-141.84;29.01
15260;BME280;34462;51.368;12.364;2022-08-11T14:15:55;23510.41;;;-141.84;28.66
15260;BME280;34462;51.368;12.364;2022-08-11T14:18:31;23435.16;;;-141.84;28.71
15260;BME280;34462;51.368;12.364;2022-08-11T14:21:03;23433.13;;;-141.84;28.91
15260;BME280;34462;51.368;12.364;2022-08-11T14:23:53;23376.16;;;-141.84;29.23
15260;BME280;34462;51.368;12.364;2022-08-11T14:26:28;23368.03;;;-141.84;29.16
15260;BME280;34462;51.368;12.364;2022-08-11T14:29:00;23449.38;;;-141.84;29.10
15260;BME280;34462;51.368;12.364;2022-08-11T14:31:32;23439.22;;;-141.84;28.99
15260;BME280;34462;51.368;12.364;2022-08-11T14:34:06;23447.34;;;-141.84;28.89
15260;BME280;34462;51.368;12.364;2022-08-11T14:36:38;23465.66;;;-141.84;28.66